Terminal Aerodrome Forecast
Issued by NWS

Home | Current Version | Previous Version | Text Only | Print | Product List | Glossary On
Versions: 1 2 3 4 5 6 7 8 9 10 11 12 13 14 15 16
035
FTUS44 KEPZ 010520
TAFLRU
TAF
KLRU 010520Z 0106/0206 23006KT P6SM FEW030 SCT150 BKN250
     FM011600 27010KT P6SM SCT050 SCT250
     FM012100 25010G17KT P6SM SCT070 SCT250
     FM020000 28008KT P6SM FEW060 FEW250=

USA.gov is the U.S. government's official web portal to all federal, state and local government web resources and services.